sensor_id;sensor_type;location;lat;lon;timestamp;temperature;humidity
17687;DHT22;8962;52.538;13.266;2023-09-12T00:01:37;19.50;99.90
17687;DHT22;8962;52.538;13.266;2023-09-12T00:04:05;19.60;99.90
17687;DHT22;8962;52.538;13.266;2023-09-12T00:06:34;19.60;99.90
17687;DHT22;8962;52.538;13.266;2023-09-12T00:09:01;19.60;99.90
17687;DHT22;8962;52.538;13.266;2023-09-12T00:11:32;19.70;99.90
17687;DHT22;8962;52.538;13.266;2023-09-12T00:14:00;19.70;99.90
17687;DHT22;8962;52.538;13.266;2023-09-12T00:16:27;19.70;99.90
17687;DHT22;8962;52.538;13.266;2023-09-12T00:18:54;19.70;99.90
17687;DHT22;8962;52.538;13.266;2023-09-12T00:21:21;19.70;99.90
17687;DHT22;8962;52.538;13.266;2023-09-12T00:23:50;19.60;99.90
17687;DHT22;8962;52.538;13.266;2023-09-12T00:26:17;19.60;99.90
17687;DHT22;8962;52.538;13.266;2023-09-12T00:28:45;19.60;99.90
17687;DHT22;8962;52.538;13.266;2023-09-12T00:31:14;19.60;99.90
17687;DHT22;8962;52.538;13.266;2023-09-12T00:33:43;19.60;99.90
17687;DHT22;8962;52.538;13.266;2023-09-12T00:36:10;19.50;99.90
17687;DHT22;8962;52.538;13.266;2023-09-12T00:38:37;19.50;99.90
17687;DHT22;8962;52.538;13.266;2023-09-12T00:41:06;19.40;99.90
17687;DHT22;8962;52.538;13.266;2023-09-12T00:43:33;19.40;99.90
17687;DHT22;8962;52.538;13.266;2023-09-12T00:46:00;19.40;99.90
17687;DHT22;8962;52.538;13.266;2023-09-12T00:48:29;19.40;99.90
17687;DHT22;8962;52.538;13.266;2023-09-12T00:50:58;19.30;99.90
17687;DHT22;8962;52.538;13.266;2023-09-12T00:53:26;19.30;99.90
17687;DHT22;8962;52.538;13.266;2023-09-12T00:55:57;19.30;99.90
17687;DHT22;8962;52.538;13.266;2023-09-12T00:58:28;19.30;99.90
17687;DHT22;8962;52.538;13.266;2023-09-12T01:00:57;19.20;99.90
17687;DHT22;8962;52.538;13.266;2023-09-12T01:03:24;19.30;99.90
17687;DHT22;8962;52.538;13.266;2023-09-12T01:05:53;19.20;99.90
17687;DHT22;8962;52.538;13.266;2023-09-12T01:08:21;19.20;99.90
17687;DHT22;8962;52.538;13.266;2023-09-12T01:10:49;19.20;99.90
17687;DHT22;8962;52.538;13.266;2023-09-12T01:13:18;19.10;99.90
17687;DHT22;8962;52.538;13.266;2023-09-12T01:15:46;19.20;99.90
17687;DHT22;8962;52.538;13.266;2023-09-12T01:18:13;19.10;99.90
17687;DHT22;8962;52.538;13.266;2023-09-12T01:20:52;19.00;99.90
17687;DHT22;8962;52.538;13.266;2023-09-12T01:23:39;19.00;99.90
17687;DHT22;8962;52.538;13.266;2023-09-12T01:26:22;19.00;99.90
17687;DHT22;8962;52.538;13.266;2023-09-12T01:28:55;19.00;99.90
17687;DHT22;8962;52.538;13.266;2023-09-12T01:31:24;18.90;99.90
17687;DHT22;8962;52.538;13.266;2023-09-12T01:33:55;18.90;99.90
17687;DHT22;8962;52.538;13.266;2023-09-12T01:36:23;18.90;99.90
17687;DHT22;8962;52.538;13.266;2023-09-12T01:38:51;18.80;99.90
17687;DHT22;8962;52.538;13.266;2023-09-12T01:41:18;18.90;99.90
17687;DHT22;8962;52.538;13.266;2023-09-12T01:43:49;18.80;99.90
17687;DHT22;8962;52.538;13.266;2023-09-12T01:46:20;18.80;99.90
17687;DHT22;8962;52.538;13.266;2023-09-12T01:48:48;18.80;99.90
17687;DHT22;8962;52.538;13.266;2023-09-12T01:51:19;18.80;99.90
17687;DHT22;8962;52.538;13.266;2023-09-12T01:53:49;18.80;99.90
17687;DHT22;8962;52.538;13.266;2023-09-12T01:56:19;18.80;99.90
17687;DHT22;8962;52.538;13.266;2023-09-12T01:58:48;18.80;99.90
17687;DHT22;8962;52.538;13.266;2023-09-12T02:01:16;18.80;99.90
17687;DHT22;8962;52.538;13.266;2023-09-12T02:03:45;18.70;99.90
17687;DHT22;8962;52.538;13.266;2023-09-12T02:06:12;18.70;99.90
17687;DHT22;8962;52.538;13.266;2023-09-12T02:08:39;18.60;99.90
17687;DHT22;8962;52.538;13.266;2023-09-12T02:11:08;18.60;99.90
17687;DHT22;8962;52.538;13.266;2023-09-12T02:13:39;18.60;99.90
17687;DHT22;8962;52.538;13.266;2023-09-12T02:16:08;18.60;99.90
17687;DHT22;8962;52.538;13.266;2023-09-12T02:18:36;18.60;99.90
17687;DHT22;8962;52.538;13.266;2023-09-12T02:21:04;18.60;99.90
17687;DHT22;8962;52.538;13.266;2023-09-12T02:23:31;18.50;99.90
17687;DHT22;8962;52.538;13.266;2023-09-12T02:25:59;18.60;99.90
17687;DHT22;8962;52.538;13.266;2023-09-12T02:28:27;18.50;99.90
17687;DHT22;8962;52.538;13.266;2023-09-12T02:30:54;18.50;99.90
17687;DHT22;8962;52.538;13.266;2023-09-12T02:33:21;18.50;99.90
17687;DHT22;8962;52.538;13.266;2023-09-12T02:35:49;18.40;99.90
17687;DHT22;8962;52.538;13.266;2023-09-12T02:38:19;18.40;99.90
17687;DHT22;8962;52.538;13.266;2023-09-12T02:40:48;18.40;99.90
17687;DHT22;8962;52.538;13.266;2023-09-12T02:43:15;18.40;99.90
17687;DHT22;8962;52.538;13.266;2023-09-12T02:45:47;18.40;99.90
17687;DHT22;8962;52.538;13.266;2023-09-12T02:48:14;18.30;99.90
17687;DHT22;8962;52.538;13.266;2023-09-12T02:50:45;18.40;99.90
17687;DHT22;8962;52.538;13.266;2023-09-12T02:53:12;18.40;99.90
17687;DHT22;8962;52.538;13.266;2023-09-12T02:55:42;18.30;99.90
17687;DHT22;8962;52.538;13.266;2023-09-12T02:58:09;18.30;99.90
17687;DHT22;8962;52.538;13.266;2023-09-12T03:00:38;18.30;99.90
17687;DHT22;8962;52.538;13.266;2023-09-12T03:03:07;18.30;99.90
17687;DHT22;8962;52.538;13.266;2023-09-12T03:05:36;18.20;99.90
17687;DHT22;8962;52.538;13.266;2023-09-12T03:08:06;18.20;99.90
17687;DHT22;8962;52.538;13.266;2023-09-12T03:10:34;18.20;99.90
17687;DHT22;8962;52.538;13.266;2023-09-12T03:13:03;18.30;99.90
17687;DHT22;8962;52.538;13.266;2023-09-12T03:15:36;18.30;99.90
17687;DHT22;8962;52.538;13.266;2023-09-12T03:18:07;18.20;99.90
17687;DHT22;8962;52.538;13.266;2023-09-12T03:20:38;18.20;99.90
17687;DHT22;8962;52.538;13.266;2023-09-12T03:23:07;18.20;99.90
17687;DHT22;8962;52.538;13.266;2023-09-12T03:25:36;18.20;99.90
17687;DHT22;8962;52.538;13.266;2023-09-12T03:28:06;18.20;99.90
17687;DHT22;8962;52.538;13.266;2023-09-12T03:30:36;18.20;99.90
17687;DHT22;8962;52.538;13.266;2023-09-12T03:33:06;18.10;99.90
17687;DHT22;8962;52.538;13.266;2023-09-12T03:35:34;18.10;99.90
17687;DHT22;8962;52.538;13.266;2023-09-12T03:38:04;18.10;99.90
17687;DHT22;8962;52.538;13.266;2023-09-12T03:40:32;18.00;99.90
17687;DHT22;8962;52.538;13.266;2023-09-12T03:43:00;18.00;99.90
17687;DHT22;8962;52.538;13.266;2023-09-12T03:45:30;18.00;99.90
17687;DHT22;8962;52.538;13.266;2023-09-12T03:47:58;18.00;99.90
17687;DHT22;8962;52.538;13.266;2023-09-12T03:50:25;17.90;99.90
17687;DHT22;8962;52.538;13.266;2023-09-12T03:52:55;17.90;99.90
17687;DHT22;8962;52.538;13.266;2023-09-12T03:55:22;17.90;99.90
17687;DHT22;8962;52.538;13.266;2023-09-12T03:57:50;17.90;99.90
17687;DHT22;8962;52.538;13.266;2023-09-12T04:00:19;17.90;99.90
17687;DHT22;8962;52.538;13.266;2023-09-12T04:02:51;17.90;99.90
17687;DHT22;8962;52.538;13.266;2023-09-12T04:05:20;17.90;99.90
17687;DHT22;8962;52.538;13.266;2023-09-12T04:07:49;17.90;99.90
17687;DHT22;8962;52.538;13.266;2023-09-12T04:10:17;17.90;99.90
17687;DHT22;8962;52.538;13.266;2023-09-12T04:12:50;17.90;99.90
17687;DHT22;8962;52.538;13.266;2023-09-12T04:15:17;17.90;99.90
17687;DHT22;8962;52.538;13.266;2023-09-12T04:17:45;17.90;99.90
17687;DHT22;8962;52.538;13.266;2023-09-12T04:20:14;17.90;99.90
17687;DHT22;8962;52.538;13.266;2023-09-12T04:22:42;17.90;99.90
17687;DHT22;8962;52.538;13.266;2023-09-12T04:25:10;17.90;99.90
17687;DHT22;8962;52.538;13.266;2023-09-12T04:27:38;17.90;99.90
17687;DHT22;8962;52.538;13.266;2023-09-12T04:30:06;17.90;99.90
17687;DHT22;8962;52.538;13.266;2023-09-12T04:32:34;17.90;99.90
17687;DHT22;8962;52.538;13.266;2023-09-12T04:35:01;17.90;99.90
17687;DHT22;8962;52.538;13.266;2023-09-12T04:37:30;17.90;99.90
17687;DHT22;8962;52.538;13.266;2023-09-12T04:39:57;18.00;99.90
17687;DHT22;8962;52.538;13.266;2023-09-12T04:42:26;18.00;99.90
17687;DHT22;8962;52.538;13.266;2023-09-12T04:44:54;18.00;99.90
17687;DHT22;8962;52.538;13.266;2023-09-12T04:47:23;17.90;99.90
17687;DHT22;8962;52.538;13.266;2023-09-12T04:49:53;18.00;99.90
17687;DHT22;8962;52.538;13.266;2023-09-12T04:52:20;17.90;99.90
17687;DHT22;8962;52.538;13.266;2023-09-12T04:54:49;18.00;99.90
17687;DHT22;8962;52.538;13.266;2023-09-12T04:57:16;18.00;99.90
17687;DHT22;8962;52.538;13.266;2023-09-12T04:59:47;18.00;99.90
17687;DHT22;8962;52.538;13.266;2023-09-12T05:02:16;18.00;99.90
17687;DHT22;8962;52.538;13.266;2023-09-12T05:04:44;18.00;99.90
17687;DHT22;8962;52.538;13.266;2023-09-12T05:07:11;18.00;99.90
17687;DHT22;8962;52.538;13.266;2023-09-12T05:09:40;18.10;99.90
17687;DHT22;8962;52.538;13.266;2023-09-12T05:12:17;18.10;99.90
17687;DHT22;8962;52.538;13.266;2023-09-12T05:14:44;18.20;99.90
17687;DHT22;8962;52.538;13.266;2023-09-12T05:17:13;18.30;99.90
17687;DHT22;8962;52.538;13.266;2023-09-12T05:19:40;18.40;99.90
17687;DHT22;8962;52.538;13.266;2023-09-12T05:22:07;18.40;99.90
17687;DHT22;8962;52.538;13.266;2023-09-12T05:24:34;18.40;99.90
17687;DHT22;8962;52.538;13.266;2023-09-12T05:27:03;18.50;99.90
17687;DHT22;8962;52.538;13.266;2023-09-12T05:29:33;18.60;99.90
17687;DHT22;8962;52.538;13.266;2023-09-12T05:32:00;18.70;99.90
17687;DHT22;8962;52.538;13.266;2023-09-12T05:34:28;18.70;99.90
17687;DHT22;8962;52.538;13.266;2023-09-12T05:36:55;18.80;99.90
17687;DHT22;8962;52.538;13.266;2023-09-12T05:39:23;18.90;99.90
17687;DHT22;8962;52.538;13.266;2023-09-12T05:41:51;19.00;99.90
17687;DHT22;8962;52.538;13.266;2023-09-12T05:44:18;19.10;99.90
17687;DHT22;8962;52.538;13.266;2023-09-12T05:46:48;19.10;99.90
17687;DHT22;8962;52.538;13.266;2023-09-12T05:49:16;19.20;99.90
17687;DHT22;8962;52.538;13.266;2023-09-12T05:51:44;19.30;99.90
17687;DHT22;8962;52.538;13.266;2023-09-12T05:54:12;19.40;99.90
17687;DHT22;8962;52.538;13.266;2023-09-12T05:56:41;19.40;99.90
17687;DHT22;8962;52.538;13.266;2023-09-12T05:59:08;19.50;99.90
17687;DHT22;8962;52.538;13.266;2023-09-12T06:01:36;19.60;99.90
17687;DHT22;8962;52.538;13.266;2023-09-12T06:04:05;19.70;99.90
17687;DHT22;8962;52.538;13.266;2023-09-12T06:06:32;19.70;99.90
17687;DHT22;8962;52.538;13.266;2023-09-12T06:09:02;19.80;99.90
17687;DHT22;8962;52.538;13.266;2023-09-12T06:11:30;20.00;99.90
17687;DHT22;8962;52.538;13.266;2023-09-12T06:13:58;20.10;99.90
17687;DHT22;8962;52.538;13.266;2023-09-12T06:16:25;20.10;99.90
17687;DHT22;8962;52.538;13.266;2023-09-12T06:19:15;20.20;99.90
17687;DHT22;8962;52.538;13.266;2023-09-12T06:21:48;20.40;99.90
17687;DHT22;8962;52.538;13.266;2023-09-12T06:24:20;20.50;99.90
17687;DHT22;8962;52.538;13.266;2023-09-12T06:26:47;20.60;99.90
17687;DHT22;8962;52.538;13.266;2023-09-12T06:29:15;20.70;99.90
17687;DHT22;8962;52.538;13.266;2023-09-12T06:31:42;20.80;99.90
17687;DHT22;8962;52.538;13.266;2023-09-12T06:34:10;21.00;99.90
17687;DHT22;8962;52.538;13.266;2023-09-12T06:36:38;21.10;99.90
17687;DHT22;8962;52.538;13.266;2023-09-12T06:39:07;21.20;99.90
17687;DHT22;8962;52.538;13.266;2023-09-12T06:41:35;21.20;99.90
17687;DHT22;8962;52.538;13.266;2023-09-12T06:44:02;21.30;99.90
17687;DHT22;8962;52.538;13.266;2023-09-12T06:46:33;21.30;99.90
17687;DHT22;8962;52.538;13.266;2023-09-12T06:49:05;21.50;99.90
17687;DHT22;8962;52.538;13.266;2023-09-12T06:51:32;21.60;99.90
17687;DHT22;8962;52.538;13.266;2023-09-12T06:54:01;21.80;99.90
17687;DHT22;8962;52.538;13.266;2023-09-12T06:56:29;21.80;99.90
17687;DHT22;8962;52.538;13.266;2023-09-12T06:58:56;21.90;99.90
17687;DHT22;8962;52.538;13.266;2023-09-12T07:01:27;22.00;99.90
17687;DHT22;8962;52.538;13.266;2023-09-12T07:03:55;22.10;99.90
17687;DHT22;8962;52.538;13.266;2023-09-12T07:06:22;22.10;99.90
17687;DHT22;8962;52.538;13.266;2023-09-12T07:08:51;22.20;99.90
17687;DHT22;8962;52.538;13.266;2023-09-12T07:11:19;22.30;99.90
17687;DHT22;8962;52.538;13.266;2023-09-12T07:13:51;22.40;99.90
17687;DHT22;8962;52.538;13.266;2023-09-12T07:16:21;22.60;99.90
17687;DHT22;8962;52.538;13.266;2023-09-12T07:18:48;22.70;99.90
17687;DHT22;8962;52.538;13.266;2023-09-12T07:21:16;23.00;99.90
17687;DHT22;8962;52.538;13.266;2023-09-12T07:23:43;23.00;99.90
17687;DHT22;8962;52.538;13.266;2023-09-12T07:26:12;23.10;99.90
17687;DHT22;8962;52.538;13.266;2023-09-12T07:28:42;23.20;99.90
17687;DHT22;8962;52.538;13.266;2023-09-12T07:31:09;23.40;99.90
17687;DHT22;8962;52.538;13.266;2023-09-12T07:33:38;23.50;99.90
17687;DHT22;8962;52.538;13.266;2023-09-12T07:36:06;23.60;99.90
17687;DHT22;8962;52.538;13.266;2023-09-12T07:38:33;23.70;99.90
17687;DHT22;8962;52.538;13.266;2023-09-12T07:41:02;23.80;99.90
17687;DHT22;8962;52.538;13.266;2023-09-12T07:43:30;23.90;99.90
17687;DHT22;8962;52.538;13.266;2023-09-12T07:45:59;24.10;99.90
17687;DHT22;8962;52.538;13.266;2023-09-12T07:48:27;24.20;99.90
17687;DHT22;8962;52.538;13.266;2023-09-12T07:50:54;24.40;99.90
17687;DHT22;8962;52.538;13.266;2023-09-12T07:53:21;24.50;99.90
17687;DHT22;8962;52.538;13.266;2023-09-12T07:55:48;24.60;99.90
17687;DHT22;8962;52.538;13.266;2023-09-12T07:58:17;24.80;99.90
17687;DHT22;8962;52.538;13.266;2023-09-12T08:00:45;24.90;99.90
17687;DHT22;8962;52.538;13.266;2023-09-12T08:03:14;25.00;99.90
17687;DHT22;8962;52.538;13.266;2023-09-12T08:05:54;25.20;99.90
17687;DHT22;8962;52.538;13.266;2023-09-12T08:08:22;25.40;99.90
17687;DHT22;8962;52.538;13.266;2023-09-12T08:10:49;25.40;99.90
17687;DHT22;8962;52.538;13.266;2023-09-12T08:13:18;25.50;99.90
17687;DHT22;8962;52.538;13.266;2023-09-12T08:15:45;25.70;99.90
17687;DHT22;8962;52.538;13.266;2023-09-12T08:18:14;25.70;99.90
17687;DHT22;8962;52.538;13.266;2023-09-12T08:20:41;25.70;99.90
17687;DHT22;8962;52.538;13.266;2023-09-12T08:23:09;25.80;99.90
17687;DHT22;8962;52.538;13.266;2023-09-12T08:25:36;25.90;99.90
17687;DHT22;8962;52.538;13.266;2023-09-12T08:28:04;26.00;99.90
17687;DHT22;8962;52.538;13.266;2023-09-12T08:30:31;26.20;99.90
17687;DHT22;8962;52.538;13.266;2023-09-12T08:32:59;26.30;99.90
17687;DHT22;8962;52.538;13.266;2023-09-12T08:35:30;26.40;99.90
17687;DHT22;8962;52.538;13.266;2023-09-12T08:37:57;26.50;99.90
17687;DHT22;8962;52.538;13.266;2023-09-12T08:40:24;26.70;99.90
17687;DHT22;8962;52.538;13.266;2023-09-12T08:42:52;26.80;99.90
17687;DHT22;8962;52.538;13.266;2023-09-12T08:45:20;26.90;99.90
17687;DHT22;8962;52.538;13.266;2023-09-12T08:47:50;26.90;99.90
17687;DHT22;8962;52.538;13.266;2023-09-12T08:50:18;26.90;99.90
17687;DHT22;8962;52.538;13.266;2023-09-12T08:52:51;27.00;99.90
17687;DHT22;8962;52.538;13.266;2023-09-12T08:55:20;27.10;99.90
17687;DHT22;8962;52.538;13.266;2023-09-12T08:57:50;27.30;99.90
17687;DHT22;8962;52.538;13.266;2023-09-12T09:00:19;27.30;99.90
17687;DHT22;8962;52.538;13.266;2023-09-12T09:02:49;27.40;99.90
17687;DHT22;8962;52.538;13.266;2023-09-12T09:05:17;27.40;99.90
17687;DHT22;8962;52.538;13.266;2023-09-12T09:07:44;27.40;99.90
17687;DHT22;8962;52.538;13.266;2023-09-12T09:10:18;27.40;99.90
17687;DHT22;8962;52.538;13.266;2023-09-12T09:12:47;27.30;99.90
17687;DHT22;8962;52.538;13.266;2023-09-12T09:15:21;27.40;99.90
17687;DHT22;8962;52.538;13.266;2023-09-12T09:17:49;27.20;99.90
17687;DHT22;8962;52.538;13.266;2023-09-12T09:20:46;27.20;99.90
17687;DHT22;8962;52.538;13.266;2023-09-12T09:23:16;27.00;99.90
17687;DHT22;8962;52.538;13.266;2023-09-12T09:25:51;26.70;99.90
17687;DHT22;8962;52.538;13.266;2023-09-12T09:28:20;26.70;99.90
17687;DHT22;8962;52.538;13.266;2023-09-12T09:30:50;26.60;99.90
17687;DHT22;8962;52.538;13.266;2023-09-12T09:33:20;26.70;99.90
17687;DHT22;8962;52.538;13.266;2023-09-12T09:35:49;26.60;99.90
17687;DHT22;8962;52.538;13.266;2023-09-12T09:38:19;26.60;99.90
17687;DHT22;8962;52.538;13.266;2023-09-12T09:40:48;26.80;99.90
17687;DHT22;8962;52.538;13.266;2023-09-12T09:43:19;26.70;99.90
17687;DHT22;8962;52.538;13.266;2023-09-12T09:45:47;26.50;99.90
17687;DHT22;8962;52.538;13.266;2023-09-12T09:48:18;26.60;99.90
17687;DHT22;8962;52.538;13.266;2023-09-12T09:50:46;26.70;99.90
17687;DHT22;8962;52.538;13.266;2023-09-12T09:53:14;26.80;99.90
17687;DHT22;8962;52.538;13.266;2023-09-12T09:55:41;26.90;99.90
17687;DHT22;8962;52.538;13.266;2023-09-12T09:58:14;26.80;99.90
17687;DHT22;8962;52.538;13.266;2023-09-12T10:00:43;26.90;99.90
17687;DHT22;8962;52.538;13.266;2023-09-12T10:03:11;27.10;99.90
17687;DHT22;8962;52.538;13.266;2023-09-12T10:05:40;27.30;99.90
17687;DHT22;8962;52.538;13.266;2023-09-12T10:08:09;27.40;99.90
17687;DHT22;8962;52.538;13.266;2023-09-12T10:10:38;27.50;99.90
17687;DHT22;8962;52.538;13.266;2023-09-12T10:13:06;27.70;99.90
17687;DHT22;8962;52.538;13.266;2023-09-12T10:15:37;27.70;99.90
17687;DHT22;8962;52.538;13.266;2023-09-12T10:18:08;27.70;99.90
17687;DHT22;8962;52.538;13.266;2023-09-12T10:20:41;27.90;99.90
17687;DHT22;8962;52.538;13.266;2023-09-12T10:23:14;27.90;99.90
17687;DHT22;8962;52.538;13.266;2023-09-12T10:25:46;27.80;99.90
17687;DHT22;8962;52.538;13.266;2023-09-12T10:28:15;27.90;99.90
17687;DHT22;8962;52.538;13.266;2023-09-12T10:30:47;27.90;99.90
17687;DHT22;8962;52.538;13.266;2023-09-12T10:33:16;27.80;99.90
17687;DHT22;8962;52.538;13.266;2023-09-12T10:35:45;27.90;99.90
17687;DHT22;8962;52.538;13.266;2023-09-12T10:38:13;27.90;99.90
17687;DHT22;8962;52.538;13.266;2023-09-12T10:40:43;27.90;99.90
17687;DHT22;8962;52.538;13.266;2023-09-12T10:43:12;27.90;99.90
17687;DHT22;8962;52.538;13.266;2023-09-12T10:45:42;28.10;99.90
17687;DHT22;8962;52.538;13.266;2023-09-12T10:48:10;28.00;99.90
17687;DHT22;8962;52.538;13.266;2023-09-12T10:50:38;28.00;99.90
17687;DHT22;8962;52.538;13.266;2023-09-12T10:53:11;28.10;99.90
17687;DHT22;8962;52.538;13.266;2023-09-12T10:55:38;28.30;99.90
17687;DHT22;8962;52.538;13.266;2023-09-12T10:58:08;28.30;99.90
17687;DHT22;8962;52.538;13.266;2023-09-12T11:00:36;28.20;99.90
17687;DHT22;8962;52.538;13.266;2023-09-12T11:03:38;28.20;99.90
17687;DHT22;8962;52.538;13.266;2023-09-12T11:06:19;28.30;99.90
17687;DHT22;8962;52.538;13.266;2023-09-12T11:11:48;28.20;99.90
17687;DHT22;8962;52.538;13.266;2023-09-12T11:14:19;28.30;99.90
17687;DHT22;8962;52.538;13.266;2023-09-12T11:19:45;28.80;99.90
17687;DHT22;8962;52.538;13.266;2023-09-12T11:22:22;29.90;98.60
17687;DHT22;8962;52.538;13.266;2023-09-12T11:24:49;30.20;97.80
17687;DHT22;8962;52.538;13.266;2023-09-12T11:27:18;30.60;96.80
17687;DHT22;8962;52.538;13.266;2023-09-12T11:29:46;30.30;96.50
17687;DHT22;8962;52.538;13.266;2023-09-12T11:32:26;29.70;97.00
17687;DHT22;8962;52.538;13.266;2023-09-12T11:34:55;29.40;98.00
17687;DHT22;8962;52.538;13.266;2023-09-12T11:37:23;29.60;98.10
17687;DHT22;8962;52.538;13.266;2023-09-12T11:39:51;30.50;96.40
17687;DHT22;8962;52.538;13.266;2023-09-12T11:42:20;31.40;94.40
17687;DHT22;8962;52.538;13.266;2023-09-12T11:44:52;30.80;94.40
17687;DHT22;8962;52.538;13.266;2023-09-12T11:47:20;30.20;95.70
17687;DHT22;8962;52.538;13.266;2023-09-12T11:49:48;30.90;94.40
17687;DHT22;8962;52.538;13.266;2023-09-12T11:52:17;32.00;92.20
17687;DHT22;8962;52.538;13.266;2023-09-12T11:54:45;33.10;88.80
17687;DHT22;8962;52.538;13.266;2023-09-12T11:57:14;33.60;83.60
17687;DHT22;8962;52.538;13.266;2023-09-12T11:59:46;33.90;79.00
17687;DHT22;8962;52.538;13.266;2023-09-12T12:02:14;34.50;74.60
17687;DHT22;8962;52.538;13.266;2023-09-12T12:04:42;35.20;69.10
17687;DHT22;8962;52.538;13.266;2023-09-12T12:07:10;35.40;64.80
17687;DHT22;8962;52.538;13.266;2023-09-12T12:09:39;35.10;63.70
17687;DHT22;8962;52.538;13.266;2023-09-12T12:12:10;35.40;60.40
17687;DHT22;8962;52.538;13.266;2023-09-12T12:14:40;35.00;59.60
17687;DHT22;8962;52.538;13.266;2023-09-12T12:17:10;35.30;58.60
17687;DHT22;8962;52.538;13.266;2023-09-12T12:19:39;35.40;57.30
17687;DHT22;8962;52.538;13.266;2023-09-12T12:22:07;35.80;54.60
17687;DHT22;8962;52.538;13.266;2023-09-12T12:24:38;36.10;52.60
17687;DHT22;8962;52.538;13.266;2023-09-12T12:27:06;36.30;50.40
17687;DHT22;8962;52.538;13.266;2023-09-12T12:29:34;36.00;50.10
17687;DHT22;8962;52.538;13.266;2023-09-12T12:32:02;36.10;49.90
17687;DHT22;8962;52.538;13.266;2023-09-12T12:34:31;36.40;48.20
17687;DHT22;8962;52.538;13.266;2023-09-12T12:36:58;36.40;46.60
17687;DHT22;8962;52.538;13.266;2023-09-12T12:39:26;36.80;45.30
17687;DHT22;8962;52.538;13.266;2023-09-12T12:41:55;36.90;44.10
17687;DHT22;8962;52.538;13.266;2023-09-12T12:44:33;36.80;45.40
17687;DHT22;8962;52.538;13.266;2023-09-12T12:47:06;37.40;42.70
17687;DHT22;8962;52.538;13.266;2023-09-12T12:49:36;37.80;40.10
17687;DHT22;8962;52.538;13.266;2023-09-12T12:52:05;37.90;39.30
17687;DHT22;8962;52.538;13.266;2023-09-12T12:54:32;38.00;37.90
17687;DHT22;8962;52.538;13.266;2023-09-12T12:57:02;38.10;36.90
17687;DHT22;8962;52.538;13.266;2023-09-12T12:59:29;38.80;34.50
17687;DHT22;8962;52.538;13.266;2023-09-12T13:02:01;38.80;33.20
17687;DHT22;8962;52.538;13.266;2023-09-12T13:04:36;38.00;34.30
17687;DHT22;8962;52.538;13.266;2023-09-12T13:07:04;38.00;34.20
17687;DHT22;8962;52.538;13.266;2023-09-12T13:09:31;37.80;33.70
17687;DHT22;8962;52.538;13.266;2023-09-12T13:11:58;37.90;33.20
17687;DHT22;8962;52.538;13.266;2023-09-12T13:14:28;38.10;32.20
17687;DHT22;8962;52.538;13.266;2023-09-12T13:16:58;38.10;32.00
17687;DHT22;8962;52.538;13.266;2023-09-12T13:19:26;38.50;31.50
17687;DHT22;8962;52.538;13.266;2023-09-12T13:21:54;38.90;31.40
17687;DHT22;8962;52.538;13.266;2023-09-12T13:24:21;39.10;30.70
17687;DHT22;8962;52.538;13.266;2023-09-12T13:26:48;38.80;29.90
17687;DHT22;8962;52.538;13.266;2023-09-12T13:29:15;38.90;28.30
17687;DHT22;8962;52.538;13.266;2023-09-12T13:31:44;39.30;28.40
17687;DHT22;8962;52.538;13.266;2023-09-12T13:34:11;39.30;28.10
17687;DHT22;8962;52.538;13.266;2023-09-12T13:36:39;39.70;25.90
17687;DHT22;8962;52.538;13.266;2023-09-12T13:39:07;39.60;26.50
17687;DHT22;8962;52.538;13.266;2023-09-12T13:41:34;39.70;25.40
17687;DHT22;8962;52.538;13.266;2023-09-12T13:44:02;39.80;25.60
17687;DHT22;8962;52.538;13.266;2023-09-12T13:46:30;39.20;25.80
17687;DHT22;8962;52.538;13.266;2023-09-12T13:48:58;39.60;25.40
17687;DHT22;8962;52.538;13.266;2023-09-12T13:51:30;40.50;23.50
17687;DHT22;8962;52.538;13.266;2023-09-12T13:53:57;39.90;23.80
17687;DHT22;8962;52.538;13.266;2023-09-12T13:56:24;39.20;24.10
17687;DHT22;8962;52.538;13.266;2023-09-12T13:58:51;39.20;24.70
17687;DHT22;8962;52.538;13.266;2023-09-12T14:01:18;38.90;25.10
17687;DHT22;8962;52.538;13.266;2023-09-12T14:03:49;38.90;25.50
17687;DHT22;8962;52.538;13.266;2023-09-12T14:06:17;38.30;26.60
17687;DHT22;8962;52.538;13.266;2023-09-12T14:08:44;37.10;27.50
17687;DHT22;8962;52.538;13.266;2023-09-12T14:11:12;35.60;30.00
17687;DHT22;8962;52.538;13.266;2023-09-12T14:13:39;35.20;30.60
17687;DHT22;8962;52.538;13.266;2023-09-12T14:16:06;35.20;31.20
17687;DHT22;8962;52.538;13.266;2023-09-12T14:18:33;34.60;32.70
17687;DHT22;8962;52.538;13.266;2023-09-12T14:21:00;34.00;34.70
17687;DHT22;8962;52.538;13.266;2023-09-12T14:23:30;33.30;36.90
17687;DHT22;8962;52.538;13.266;2023-09-12T14:25:57;32.90;38.90
17687;DHT22;8962;52.538;13.266;2023-09-12T14:28:24;32.30;43.30
17687;DHT22;8962;52.538;13.266;2023-09-12T14:30:51;31.20;49.40
17687;DHT22;8962;52.538;13.266;2023-09-12T14:33:19;30.50;56.20
17687;DHT22;8962;52.538;13.266;2023-09-12T14:35:47;30.00;63.10
17687;DHT22;8962;52.538;13.266;2023-09-12T14:38:14;30.30;66.50
17687;DHT22;8962;52.538;13.266;2023-09-12T14:40:44;31.00;64.90
17687;DHT22;8962;52.538;13.266;2023-09-12T14:43:11;30.50;67.10
17687;DHT22;8962;52.538;13.266;2023-09-12T14:45:39;29.60;70.80
17687;DHT22;8962;52.538;13.266;2023-09-12T14:48:06;29.10;77.60
17687;DHT22;8962;52.538;13.266;2023-09-12T14:50:33;28.50;85.30
17687;DHT22;8962;52.538;13.266;2023-09-12T14:53:01;28.30;90.00
17687;DHT22;8962;52.538;13.266;2023-09-12T14:55:28;28.20;91.60
17687;DHT22;8962;52.538;13.266;2023-09-12T14:57:56;28.10;92.50
17687;DHT22;8962;52.538;13.266;2023-09-12T15:00:24;27.90;93.40
17687;DHT22;8962;52.538;13.266;2023-09-12T15:02:51;27.80;94.50
17687;DHT22;8962;52.538;13.266;2023-09-12T15:05:18;27.70;94.80
17687;DHT22;8962;52.538;13.266;2023-09-12T15:07:46;27.80;95.10
17687;DHT22;8962;52.538;13.266;2023-09-12T15:10:15;27.40;95.50
17687;DHT22;8962;52.538;13.266;2023-09-12T15:12:42;27.40;95.60
17687;DHT22;8962;52.538;13.266;2023-09-12T15:15:11;27.30;95.90
17687;DHT22;8962;52.538;13.266;2023-09-12T15:17:38;27.20;96.40
17687;DHT22;8962;52.538;13.266;2023-09-12T15:20:07;27.10;96.80
17687;DHT22;8962;52.538;13.266;2023-09-12T15:22:35;27.20;97.10
17687;DHT22;8962;52.538;13.266;2023-09-12T15:25:03;27.30;97.00
17687;DHT22;8962;52.538;13.266;2023-09-12T15:27:30;27.20;97.50
17687;DHT22;8962;52.538;13.266;2023-09-12T15:30:00;26.90;98.60
17687;DHT22;8962;52.538;13.266;2023-09-12T15:32:29;26.60;99.20
17687;DHT22;8962;52.538;13.266;2023-09-12T15:34:59;26.60;99.90
17687;DHT22;8962;52.538;13.266;2023-09-12T15:37:26;26.60;99.90
17687;DHT22;8962;52.538;13.266;2023-09-12T15:39:53;26.50;99.90
17687;DHT22;8962;52.538;13.266;2023-09-12T15:42:21;26.60;99.90
17687;DHT22;8962;52.538;13.266;2023-09-12T15:44:48;26.60;99.90
17687;DHT22;8962;52.538;13.266;2023-09-12T15:47:17;26.70;99.90